Time;durP1;ratioP1;P1;durP2;ratioP2;P2;SDS_P1;SDS_P2;PMS_P1;PMS_P2;Temp;Humidity;BMP_temperature;BMP_pressure;BME280_temperature;BME280_humidity;BME280_pressure;Samples;Min_cycle;Max_cycle;Signal;HPM_P1;HPM_P2
2022/05/28 00:01:31;;;;;;;0.40;0.40;;;;;;;;;;5052758;28;20049;-69
2022/05/28 00:04:04;;;;;;;0.40;0.40;;;;;;;;;;5049776;28;20076;-69
2022/05/28 00:06:34;;;;;;;0.30;0.27;;;;;;;;;;5047654;28;20053;-69
2022/05/28 00:09:03;;;;;;;0.20;0.20;;;;;;;;;;5051880;28;20715;-69
2022/05/28 00:11:33;;;;;;;0.30;0.30;;;;;;;;;;5051900;28;20114;-70
2022/05/28 00:14:01;;;;;;;0.10;0.10;;;;;;;;;;5051151;28;20109;-69
2022/05/28 00:16:29;;;;;;;0.13;0.13;;;;;;;;;;5051728;28;20109;-70
2022/05/28 00:18:58;;;;;;;0.25;0.20;;;;;;;;;;5052056;28;20045;-69
2022/05/28 00:21:30;;;;;;;0.57;0.30;;;;;;;;;;5050537;28;20096;-70
2022/05/28 00:23:59;;;;;;;0.13;0.13;;;;;;;;;;5051601;28;20084;-70
2022/05/28 00:26:27;;;;;;;0.38;0.20;;;;;;;;;;5050313;28;20080;-70
2022/05/28 00:28:56;;;;;;;0.68;0.30;;;;;;;;;;5048480;28;20272;-70
2022/05/28 00:31:24;;;;;;;0.10;0.10;;;;;;;;;;5039620;28;20085;-69
2022/05/28 00:33:52;;;;;;;0.30;0.20;;;;;;;;;;5050184;28;20103;-69
2022/05/28 00:36:21;;;;;;;0.25;0.10;;;;;;;;;;5053069;28;20476;-69
2022/05/28 00:38:51;;;;;;;0.13;0.13;;;;;;;;;;5046494;28;20139;-69
2022/05/28 00:41:19;;;;;;;0.10;0.10;;;;;;;;;;5048235;28;20068;-69
2022/05/28 00:43:47;;;;;;;0.20;0.20;;;;;;;;;;5045432;28;20604;-69
2022/05/28 00:46:18;;;;;;;0.10;0.10;;;;;;;;;;5053300;28;20475;-69
2022/05/28 00:48:49;;;;;;;0.75;0.35;;;;;;;;;;5046120;28;20076;-70
2022/05/28 00:51:19;;;;;;;0.22;0.17;;;;;;;;;;5043940;28;20084;-68
2022/05/28 00:53:47;;;;;;;0.10;0.10;;;;;;;;;;5049349;28;20143;-69
2022/05/28 00:56:17;;;;;;;0.35;0.32;;;;;;;;;;5053064;28;20140;-69
2022/05/28 00:58:45;;;;;;;0.30;0.30;;;;;;;;;;5050201;28;20563;-69
2022/05/28 01:01:22;;;;;;;0.45;0.20;;;;;;;;;;5053190;28;20420;-69
2022/05/28 01:03:57;;;;;;;0.20;0.20;;;;;;;;;;5049035;28;20052;-72
2022/05/28 01:06:31;;;;;;;0.60;0.60;;;;;;;;;;5037041;28;20064;-69
2022/05/28 01:09:01;;;;;;;0.68;0.68;;;;;;;;;;5046205;28;20139;-69
2022/05/28 01:11:34;;;;;;;0.28;0.17;;;;;;;;;;5050309;28;20084;-69
2022/05/28 01:14:06;;;;;;;1.30;0.40;;;;;;;;;;5047751;28;20139;-69
2022/05/28 01:16:36;;;;;;;0.40;0.40;;;;;;;;;;5049003;28;20073;-69
2022/05/28 01:19:07;;;;;;;1.35;1.00;;;;;;;;;;5050853;28;20055;-69
2022/05/28 01:21:38;;;;;;;0.20;0.20;;;;;;;;;;5043967;28;20195;-69
2022/05/28 01:24:10;;;;;;;0.52;0.22;;;;;;;;;;5047394;28;20151;-69
2022/05/28 01:26:45;;;;;;;0.52;0.43;;;;;;;;;;5050647;28;20504;-69
2022/05/28 01:29:16;;;;;;;0.17;0.17;;;;;;;;;;5044948;28;20485;-69
2022/05/28 01:31:45;;;;;;;0.80;0.50;;;;;;;;;;5049713;28;20076;-69
2022/05/28 01:34:14;;;;;;;0.93;0.43;;;;;;;;;;5048949;28;20477;-69
2022/05/28 01:36:43;;;;;;;0.17;0.17;;;;;;;;;;5050081;28;20496;-69
2022/05/28 01:39:11;;;;;;;1.00;0.50;;;;;;;;;;5045960;28;20079;-69
2022/05/28 01:41:41;;;;;;;0.10;0.10;;;;;;;;;;5050407;28;20132;-70
2022/05/28 01:44:12;;;;;;;0.95;0.82;;;;;;;;;;5046998;28;20045;-69
2022/05/28 01:46:41;;;;;;;1.58;0.65;;;;;;;;;;5047897;28;20076;-69
2022/05/28 01:49:11;;;;;;;0.57;0.43;;;;;;;;;;5049654;28;20064;-69
2022/05/28 01:51:42;;;;;;;0.30;0.30;;;;;;;;;;5048307;28;20080;-69
2022/05/28 01:54:13;;;;;;;0.20;0.20;;;;;;;;;;5050150;28;20085;-70
2022/05/28 01:56:43;;;;;;;0.17;0.17;;;;;;;;;;5046059;28;20501;-69
2022/05/28 01:59:14;;;;;;;0.50;0.50;;;;;;;;;;5049162;28;20073;-70
2022/05/28 02:01:42;;;;;;;0.43;0.40;;;;;;;;;;5048989;28;20080;-69
2022/05/28 02:04:11;;;;;;;0.20;0.20;;;;;;;;;;5048415;28;20131;-69
2022/05/28 02:06:40;;;;;;;1.20;0.60;;;;;;;;;;5049954;28;20053;-71
2022/05/28 02:09:12;;;;;;;0.20;0.20;;;;;;;;;;5050311;28;20139;-71
2022/05/28 02:11:48;;;;;;;0.47;0.47;;;;;;;;;;5043086;28;20479;-71
2022/05/28 02:14:22;;;;;;;0.20;0.20;;;;;;;;;;5037977;28;20155;-70
2022/05/28 02:16:54;;;;;;;0.20;0.20;;;;;;;;;;5049099;28;20540;-70
2022/05/28 02:19:31;;;;;;;0.20;0.20;;;;;;;;;;5047013;28;20488;-70
2022/05/28 02:22:03;;;;;;;0.32;0.30;;;;;;;;;;5045174;28;20132;-70
2022/05/28 02:24:33;;;;;;;0.25;0.25;;;;;;;;;;5049468;28;20080;-70
2022/05/28 02:27:04;;;;;;;0.17;0.17;;;;;;;;;;5045391;28;20067;-71
2022/05/28 02:29:34;;;;;;;0.75;0.32;;;;;;;;;;5047446;28;20098;-71
2022/05/28 02:32:12;;;;;;;0.38;0.38;;;;;;;;;;5041479;28;20132;-70
2022/05/28 02:34:40;;;;;;;0.28;0.28;;;;;;;;;;5048968;28;20049;-72
2022/05/28 02:37:09;;;;;;;0.50;0.50;;;;;;;;;;5048424;28;20075;-71
2022/05/28 02:39:37;;;;;;;0.20;0.20;;;;;;;;;;5050739;28;20136;-72
2022/05/28 02:42:06;;;;;;;0.90;0.50;;;;;;;;;;5047841;28;20045;-71
2022/05/28 02:44:36;;;;;;;0.98;0.22;;;;;;;;;;5048403;28;20151;-71
2022/05/28 02:47:05;;;;;;;0.90;0.35;;;;;;;;;;5046089;28;20128;-72
2022/05/28 02:49:33;;;;;;;0.70;0.28;;;;;;;;;;5049435;28;20123;-72
2022/05/28 02:52:02;;;;;;;0.10;0.10;;;;;;;;;;5052874;28;20087;-71
2022/05/28 02:54:30;;;;;;;1.08;0.20;;;;;;;;;;5053930;28;20128;-71
2022/05/28 02:56:59;;;;;;;0.20;0.20;;;;;;;;;;5050602;28;20080;-71
2022/05/28 02:59:27;;;;;;;0.38;0.28;;;;;;;;;;5052588;28;20136;-72
2022/05/28 03:01:57;;;;;;;0.63;0.28;;;;;;;;;;5051214;28;20140;-71
2022/05/28 03:04:25;;;;;;;0.38;0.20;;;;;;;;;;5050820;28;20137;-71
2022/05/28 03:06:54;;;;;;;0.57;0.40;;;;;;;;;;5043947;28;20049;-72
2022/05/28 03:09:22;;;;;;;0.73;0.43;;;;;;;;;;5050347;28;20091;-71
2022/05/28 03:11:51;;;;;;;0.82;0.55;;;;;;;;;;5052079;28;20052;-71
2022/05/28 03:14:19;;;;;;;0.10;0.10;;;;;;;;;;5053087;28;20085;-71
2022/05/28 03:16:47;;;;;;;2.08;0.90;;;;;;;;;;5052882;28;20143;-71
2022/05/28 03:19:17;;;;;;;2.42;1.00;;;;;;;;;;5051780;28;20069;-72
2022/05/28 03:21:45;;;;;;;0.05;0.05;;;;;;;;;;5039747;28;20132;-71
2022/05/28 03:24:14;;;;;;;0.00;0.00;;;;;;;;;;5044492;28;20057;-71
2022/05/28 03:26:42;;;;;;;0.10;0.10;;;;;;;;;;5053765;28;20049;-72
2022/05/28 03:29:10;;;;;;;0.32;0.32;;;;;;;;;;5049775;28;20542;-71
2022/05/28 03:31:39;;;;;;;0.30;0.30;;;;;;;;;;5053764;28;20516;-71
2022/05/28 03:34:07;;;;;;;0.73;0.20;;;;;;;;;;5051466;28;20415;-71
2022/05/28 03:36:37;;;;;;;0.10;0.10;;;;;;;;;;5052667;28;20140;-71
2022/05/28 03:39:05;;;;;;;0.63;0.57;;;;;;;;;;5046958;28;20511;-71
2022/05/28 03:41:33;;;;;;;0.20;0.20;;;;;;;;;;5051230;28;20468;-71
2022/05/28 03:44:01;;;;;;;0.32;0.30;;;;;;;;;;5051947;28;20072;-71
2022/05/28 03:46:31;;;;;;;1.08;0.60;;;;;;;;;;5052149;28;20077;-72
2022/05/28 03:49:02;;;;;;;0.73;0.73;;;;;;;;;;5049820;28;20037;-72
2022/05/28 03:51:30;;;;;;;0.80;0.68;;;;;;;;;;5052410;28;20084;-72
2022/05/28 03:54:02;;;;;;;0.35;0.30;;;;;;;;;;5050691;28;20080;-72
2022/05/28 03:56:34;;;;;;;1.63;0.50;;;;;;;;;;5042022;28;20059;-71
2022/05/28 03:59:02;;;;;;;0.47;0.30;;;;;;;;;;5051220;28;20052;-72
2022/05/28 04:01:30;;;;;;;2.22;1.17;;;;;;;;;;5049339;28;20084;-72
2022/05/28 04:03:59;;;;;;;0.80;0.47;;;;;;;;;;5047022;28;20041;-72
2022/05/28 04:06:27;;;;;;;1.13;0.47;;;;;;;;;;5050554;28;20084;-71
2022/05/28 04:08:55;;;;;;;0.20;0.20;;;;;;;;;;5050963;28;20135;-72
2022/05/28 04:11:25;;;;;;;0.15;0.15;;;;;;;;;;5052382;28;20049;-71
2022/05/28 04:13:54;;;;;;;1.10;1.02;;;;;;;;;;5043589;28;20096;-71
2022/05/28 04:16:22;;;;;;;0.63;0.60;;;;;;;;;;5049696;28;20089;-71
2022/05/28 04:18:51;;;;;;;1.58;0.57;;;;;;;;;;5049452;28;20041;-72
2022/05/28 04:21:19;;;;;;;0.30;0.30;;;;;;;;;;5052282;28;20111;-72
2022/05/28 04:23:47;;;;;;;0.20;0.20;;;;;;;;;;5052868;28;20049;-72
2022/05/28 04:26:16;;;;;;;1.20;0.35;;;;;;;;;;5050179;28;20459;-72
2022/05/28 04:28:46;;;;;;;0.43;0.38;;;;;;;;;;5047708;28;20053;-71
2022/05/28 04:31:14;;;;;;;0.50;0.50;;;;;;;;;;5048236;28;20053;-72
2022/05/28 04:33:43;;;;;;;2.17;1.25;;;;;;;;;;5053170;28;20137;-72
2022/05/28 04:36:11;;;;;;;2.03;1.58;;;;;;;;;;5051237;28;20081;-71
2022/05/28 04:38:41;;;;;;;0.68;0.32;;;;;;;;;;5047120;28;20152;-72
2022/05/28 04:41:10;;;;;;;0.65;0.52;;;;;;;;;;5053811;28;20044;-72
2022/05/28 04:43:38;;;;;;;0.93;0.50;;;;;;;;;;5050826;28;20080;-72
2022/05/28 04:46:11;;;;;;;0.70;0.70;;;;;;;;;;5049427;28;20052;-72
2022/05/28 04:48:40;;;;;;;3.22;0.70;;;;;;;;;;5050282;28;20087;-72
2022/05/28 04:51:08;;;;;;;2.33;0.70;;;;;;;;;;5051009;28;20049;-72
2022/05/28 04:53:37;;;;;;;0.80;0.50;;;;;;;;;;5051027;28;20111;-72
2022/05/28 04:56:08;;;;;;;0.43;0.43;;;;;;;;;;5047218;28;20081;-72
2022/05/28 04:58:40;;;;;;;3.58;0.88;;;;;;;;;;5050498;28;20094;-72
2022/05/28 05:01:12;;;;;;;0.15;0.15;;;;;;;;;;5051441;28;20044;-72
2022/05/28 05:03:41;;;;;;;0.40;0.40;;;;;;;;;;5045530;28;20283;-71
2022/05/28 05:06:10;;;;;;;0.20;0.15;;;;;;;;;;5048143;28;20137;-72
2022/05/28 05:08:43;;;;;;;0.68;0.60;;;;;;;;;;5035706;28;20108;-72
2022/05/28 05:11:12;;;;;;;8.88;0.70;;;;;;;;;;5048240;28;20049;-73
2022/05/28 05:13:40;;;;;;;1.00;0.22;;;;;;;;;;5044738;28;20079;-73
2022/05/28 05:16:09;;;;;;;1.20;0.70;;;;;;;;;;5046933;28;20453;-73
2022/05/28 05:18:39;;;;;;;0.55;0.50;;;;;;;;;;5043075;28;20123;-73
2022/05/28 05:21:11;;;;;;;0.38;0.38;;;;;;;;;;5047004;28;20057;-72
2022/05/28 05:23:40;;;;;;;0.30;0.30;;;;;;;;;;5042860;28;20115;-72
2022/05/28 05:26:11;;;;;;;1.33;0.40;;;;;;;;;;5047918;28;20134;-72
2022/05/28 05:28:40;;;;;;;1.08;0.30;;;;;;;;;;5046211;28;20488;-72
2022/05/28 05:31:12;;;;;;;0.25;0.25;;;;;;;;;;5042022;28;20424;-72
2022/05/28 05:33:40;;;;;;;0.38;0.38;;;;;;;;;;5050763;28;20055;-72
2022/05/28 05:36:10;;;;;;;0.15;0.15;;;;;;;;;;5048506;28;20455;-72
2022/05/28 05:38:40;;;;;;;0.57;0.45;;;;;;;;;;5054192;28;20049;-72
2022/05/28 05:41:08;;;;;;;0.20;0.10;;;;;;;;;;5048157;28;20068;-72
2022/05/28 05:43:36;;;;;;;0.50;0.50;;;;;;;;;;5048651;28;20049;-72
2022/05/28 05:46:08;;;;;;;0.25;0.25;;;;;;;;;;5049480;28;20076;-72
2022/05/28 05:48:38;;;;;;;0.52;0.38;;;;;;;;;;5054732;28;20488;-72
2022/05/28 05:51:11;;;;;;;0.20;0.17;;;;;;;;;;5045910;28;20052;-72
2022/05/28 05:53:39;;;;;;;0.32;0.32;;;;;;;;;;5035957;28;20132;-72
2022/05/28 05:56:08;;;;;;;0.20;0.20;;;;;;;;;;5048122;28;20172;-72
2022/05/28 05:58:38;;;;;;;0.20;0.20;;;;;;;;;;5049174;28;20049;-72
2022/05/28 06:01:08;;;;;;;1.88;0.30;;;;;;;;;;5045757;28;20049;-72
2022/05/28 06:03:38;;;;;;;0.20;0.20;;;;;;;;;;5042192;28;20053;-73
2022/05/28 06:06:07;;;;;;;0.28;0.28;;;;;;;;;;5049514;28;20049;-72
2022/05/28 06:08:37;;;;;;;0.68;0.57;;;;;;;;;;5047659;28;20482;-72
2022/05/28 06:11:08;;;;;;;0.10;0.10;;;;;;;;;;5049568;28;20136;-73
2022/05/28 06:13:36;;;;;;;10.35;0.55;;;;;;;;;;5046804;28;20087;-73
2022/05/28 06:16:08;;;;;;;0.85;0.43;;;;;;;;;;5052365;28;20044;-73
2022/05/28 06:18:41;;;;;;;1.73;0.20;;;;;;;;;;5035709;28;20056;-73
2022/05/28 06:21:10;;;;;;;0.10;0.10;;;;;;;;;;5048500;28;20070;-73
2022/05/28 06:23:41;;;;;;;0.43;0.30;;;;;;;;;;5041906;28;20072;-73
2022/05/28 06:26:10;;;;;;;0.47;0.47;;;;;;;;;;5052774;28;20049;-71
2022/05/28 06:28:39;;;;;;;0.30;0.30;;;;;;;;;;5046726;28;20053;-72
2022/05/28 06:31:08;;;;;;;0.15;0.15;;;;;;;;;;5043870;28;20128;-72
2022/05/28 06:33:37;;;;;;;0.30;0.30;;;;;;;;;;5043728;28;20148;-73
2022/05/28 06:36:09;;;;;;;0.38;0.20;;;;;;;;;;5049240;28;20136;-73
2022/05/28 06:38:40;;;;;;;0.20;0.20;;;;;;;;;;5048221;28;20045;-72
2022/05/28 06:41:08;;;;;;;0.20;0.20;;;;;;;;;;5044970;28;20075;-73
2022/05/28 06:43:37;;;;;;;4.13;0.47;;;;;;;;;;5041399;28;20334;-73
2022/05/28 06:46:09;;;;;;;0.30;0.20;;;;;;;;;;5033078;28;20594;-73
2022/05/28 06:48:39;;;;;;;0.50;0.50;;;;;;;;;;5042302;28;20492;-73
2022/05/28 06:51:08;;;;;;;0.20;0.20;;;;;;;;;;5043890;28;20053;-73
2022/05/28 06:53:37;;;;;;;0.20;0.20;;;;;;;;;;5043977;28;20080;-74
2022/05/28 06:56:10;;;;;;;0.38;0.38;;;;;;;;;;5043436;28;20552;-73
2022/05/28 06:58:39;;;;;;;0.50;0.33;;;;;;;;;;5042313;28;20060;-73
2022/05/28 07:01:09;;;;;;;0.30;0.30;;;;;;;;;;5045016;28;20334;-73
2022/05/28 07:03:39;;;;;;;0.20;0.20;;;;;;;;;;5042074;28;20080;-73
2022/05/28 07:06:08;;;;;;;0.10;0.10;;;;;;;;;;5045097;28;20068;-73
2022/05/28 07:08:36;;;;;;;2.35;0.63;;;;;;;;;;5040203;28;20057;-72
2022/05/28 07:11:10;;;;;;;0.52;0.52;;;;;;;;;;5045500;28;20490;-73
2022/05/28 07:13:39;;;;;;;0.30;0.30;;;;;;;;;;5047230;28;20053;-74
2022/05/28 07:16:08;;;;;;;0.50;0.50;;;;;;;;;;5044927;28;20483;-74
2022/05/28 07:18:37;;;;;;;0.15;0.15;;;;;;;;;;5041156;28;20052;-74
2022/05/28 07:21:09;;;;;;;0.25;0.25;;;;;;;;;;5048974;28;20072;-75
2022/05/28 07:23:38;;;;;;;1.45;0.82;;;;;;;;;;5043366;28;20576;-74
2022/05/28 07:26:12;;;;;;;0.30;0.20;;;;;;;;;;5042740;28;20072;-75
2022/05/28 07:28:41;;;;;;;1.42;0.63;;;;;;;;;;5046225;28;20060;-78
2022/05/28 07:31:10;;;;;;;0.75;0.75;;;;;;;;;;5048906;28;20049;-78
2022/05/28 07:33:40;;;;;;;0.10;0.10;;;;;;;;;;5046860;28;20520;-79
2022/05/28 07:36:09;;;;;;;0.10;0.10;;;;;;;;;;5044708;28;20140;-77
2022/05/28 07:38:39;;;;;;;0.43;0.43;;;;;;;;;;5046048;28;20091;-78
2022/05/28 07:41:09;;;;;;;0.17;0.13;;;;;;;;;;5048566;28;20048;-78
2022/05/28 07:43:38;;;;;;;0.20;0.20;;;;;;;;;;5049129;28;20160;-78
2022/05/28 07:46:11;;;;;;;1.27;0.35;;;;;;;;;;5046092;28;20128;-77
2022/05/28 07:48:40;;;;;;;0.75;0.35;;;;;;;;;;5048765;28;20051;-78
2022/05/28 07:51:08;;;;;;;0.63;0.63;;;;;;;;;;5047404;28;20045;-79
2022/05/28 07:53:37;;;;;;;0.65;0.40;;;;;;;;;;5051505;28;20136;-78
2022/05/28 07:56:09;;;;;;;0.30;0.20;;;;;;;;;;5048744;28;20103;-78
2022/05/28 07:58:39;;;;;;;1.10;0.50;;;;;;;;;;5048661;28;20048;-78
2022/05/28 08:01:09;;;;;;;1.27;0.90;;;;;;;;;;5050551;28;20045;-78
2022/05/28 08:03:38;;;;;;;0.30;0.30;;;;;;;;;;5045526;28;20049;-79
2022/05/28 08:06:09;;;;;;;4.90;0.50;;;;;;;;;;5048082;28;20064;-79
2022/05/28 08:08:38;;;;;;;3.60;0.82;;;;;;;;;;5046124;28;20500;-80
2022/05/28 08:11:09;;;;;;;1.95;0.52;;;;;;;;;;5047876;28;20075;-80
2022/05/28 08:13:38;;;;;;;1.13;1.02;;;;;;;;;;5048025;28;20535;-80
2022/05/28 08:16:11;;;;;;;0.40;0.40;;;;;;;;;;5048203;28;20103;-79
2022/05/28 08:18:40;;;;;;;0.10;0.10;;;;;;;;;;5046980;28;20044;-79
2022/05/28 08:23:55;;;;;;;0.10;0.10;;;;;;;;;;5050587;28;20112;-79
2022/05/28 08:26:24;;;;;;;0.52;0.50;;;;;;;;;;5053984;28;20461;-81
2022/05/28 08:28:53;;;;;;;0.13;0.10;;;;;;;;;;5048816;28;20365;-78
2022/05/28 08:31:23;;;;;;;0.47;0.47;;;;;;;;;;5049728;28;20179;-78
2022/05/28 08:33:51;;;;;;;0.10;0.10;;;;;;;;;;5049468;28;20574;-79
2022/05/28 08:36:20;;;;;;;0.10;0.10;;;;;;;;;;5047022;28;20566;-78
2022/05/28 08:38:48;;;;;;;0.65;0.38;;;;;;;;;;5046466;28;20055;-79
2022/05/28 08:41:19;;;;;;;0.17;0.17;;;;;;;;;;5045909;28;20107;-80
2022/05/28 08:43:49;;;;;;;0.00;0.00;;;;;;;;;;5044574;28;20045;-79
2022/05/28 08:46:19;;;;;;;0.22;0.20;;;;;;;;;;5043311;28;20052;-77
2022/05/28 08:48:50;;;;;;;1.45;0.73;;;;;;;;;;5040759;28;20080;-78
2022/05/28 08:51:21;;;;;;;0.10;0.10;;;;;;;;;;5044952;28;20151;-77
2022/05/28 08:53:52;;;;;;;0.95;0.95;;;;;;;;;;5045169;28;20485;-79
2022/05/28 08:56:23;;;;;;;0.10;0.10;;;;;;;;;;5045572;28;20572;-81
2022/05/28 08:58:56;;;;;;;0.10;0.10;;;;;;;;;;5042410;28;20057;-79
2022/05/28 09:01:24;;;;;;;0.40;0.38;;;;;;;;;;5044287;28;20103;-78
2022/05/28 09:03:57;;;;;;;0.10;0.10;;;;;;;;;;5041111;28;20120;-80
2022/05/28 09:06:28;;;;;;;0.70;0.38;;;;;;;;;;5042374;28;20056;-78
2022/05/28 09:08:57;;;;;;;0.30;0.20;;;;;;;;;;5046183;28;20065;-79
2022/05/28 09:11:27;;;;;;;0.15;0.08;;;;;;;;;;5049688;28;20081;-77
2022/05/28 09:13:55;;;;;;;0.55;0.20;;;;;;;;;;5047584;28;20072;-78
2022/05/28 09:16:26;;;;;;;0.40;0.40;;;;;;;;;;5042296;28;20504;-79
2022/05/28 09:18:58;;;;;;;0.20;0.15;;;;;;;;;;5043488;28;20514;-77
2022/05/28 09:21:26;;;;;;;0.00;0.00;;;;;;;;;;5043197;28;20140;-78
2022/05/28 09:23:58;;;;;;;1.27;0.28;;;;;;;;;;5049275;28;20065;-77
2022/05/28 09:26:31;;;;;;;4.32;0.65;;;;;;;;;;5047543;28;20084;-79
2022/05/28 09:29:08;;;;;;;0.10;0.10;;;;;;;;;;5044660;28;20116;-81
2022/05/28 09:31:44;;;;;;;2.17;0.25;;;;;;;;;;5044053;28;20134;-78
2022/05/28 09:34:20;;;;;;;0.10;0.10;;;;;;;;;;5047625;28;20063;-79
2022/05/28 09:36:51;;;;;;;0.10;0.10;;;;;;;;;;5047411;28;20143;-78
2022/05/28 09:39:25;;;;;;;0.00;0.00;;;;;;;;;;5045248;28;20084;-79
2022/05/28 09:41:58;;;;;;;1.45;0.20;;;;;;;;;;5047256;28;20090;-78
2022/05/28 09:44:35;;;;;;;0.10;0.10;;;;;;;;;;5047060;28;20049;-79
2022/05/28 09:47:09;;;;;;;0.00;0.00;;;;;;;;;;5045913;28;20135;-80
2022/05/28 09:49:38;;;;;;;;;;;;;;;;;;5048675;28;20083;-81
2022/05/28 09:52:09;;;;;;;0.10;0.10;;;;;;;;;;5048892;28;19924;-81
2022/05/28 09:54:38;;;;;;;6.05;0.20;;;;;;;;;;5049156;28;20087;-79
2022/05/28 09:57:10;;;;;;;0.10;0.10;;;;;;;;;;5048561;28;20076;-78
2022/05/28 09:59:51;;;;;;;0.20;0.20;;;;;;;;;;5049569;28;20053;-80
2022/05/28 10:02:22;;;;;;;0.10;0.10;;;;;;;;;;5052991;28;20083;-81
2022/05/28 10:04:51;;;;;;;0.50;0.50;;;;;;;;;;5047626;28;20136;-81
2022/05/28 10:07:31;;;;;;;0.10;0.10;;;;;;;;;;5046767;28;20064;-80
2022/05/28 10:10:00;;;;;;;0.20;0.20;;;;;;;;;;5045770;28;20052;-80
2022/05/28 10:12:29;;;;;;;0.10;0.10;;;;;;;;;;5045399;28;20056;-76
2022/05/28 10:15:07;;;;;;;0.40;0.20;;;;;;;;;;5043975;28;20045;-81
2022/05/28 10:17:35;;;;;;;2.45;0.20;;;;;;;;;;5051732;28;20839;-80
2022/05/28 10:20:06;;;;;;;0.28;0.20;;;;;;;;;;5044030;28;20049;-80
2022/05/28 10:22:39;;;;;;;0.17;0.17;;;;;;;;;;5048191;28;20598;-81
2022/05/28 10:25:11;;;;;;;0.10;0.10;;;;;;;;;;5044684;28;20131;-78
2022/05/28 10:27:47;;;;;;;0.17;0.17;;;;;;;;;;5048997;28;20489;-78
2022/05/28 10:30:24;;;;;;;1.45;0.30;;;;;;;;;;5047110;28;20122;-79
2022/05/28 10:32:52;;;;;;;4.00;0.32;;;;;;;;;;5049528;28;20136;-80
2022/05/28 10:35:22;;;;;;;0.40;0.22;;;;;;;;;;5051638;28;20053;-80
2022/05/28 10:37:52;;;;;;;0.10;0.10;;;;;;;;;;5044000;28;20080;-78
2022/05/28 10:40:22;;;;;;;0.10;0.10;;;;;;;;;;5043018;28;20083;-78
2022/05/28 10:42:54;;;;;;;0.75;0.38;;;;;;;;;;5043512;28;20049;-80
2022/05/28 10:45:22;;;;;;;0.10;0.10;;;;;;;;;;5052937;28;20041;-80
2022/05/28 10:48:08;;;;;;;0.25;0.17;;;;;;;;;;5046708;28;20076;-77
2022/05/28 10:50:41;;;;;;;0.20;0.20;;;;;;;;;;5047797;28;20102;-79
2022/05/28 10:53:14;;;;;;;0.20;0.20;;;;;;;;;;5049526;28;20064;-78
2022/05/28 10:55:49;;;;;;;0.08;0.08;;;;;;;;;;5050410;28;20087;-79
2022/05/28 10:58:27;;;;;;;0.38;0.22;;;;;;;;;;5047686;28;20492;-79
2022/05/28 11:00:59;;;;;;;0.30;0.30;;;;;;;;;;5051725;28;20149;-79
2022/05/28 11:03:34;;;;;;;2.75;0.20;;;;;;;;;;5041423;28;20580;-79
2022/05/28 11:06:05;;;;;;;;;;;;;;;;;;5042428;28;20099;-79
2022/05/28 11:08:40;;;;;;;0.47;0.47;;;;;;;;;;5047359;28;19921;-78
2022/05/28 11:11:13;;;;;;;0.20;0.20;;;;;;;;;;5043338;28;20065;-78
2022/05/28 11:13:54;;;;;;;0.10;0.10;;;;;;;;;;5047134;28;20060;-78
2022/05/28 11:16:30;;;;;;;0.30;0.10;;;;;;;;;;5043353;28;20099;-79
2022/05/28 11:19:10;;;;;;;0.10;0.10;;;;;;;;;;5047995;28;20068;-80
2022/05/28 11:21:47;;;;;;;0.05;0.05;;;;;;;;;;5049970;28;20104;-81
2022/05/28 11:24:23;;;;;;;0.40;0.30;;;;;;;;;;5047736;28;20068;-81
2022/05/28 11:26:56;;;;;;;0.65;0.47;;;;;;;;;;5046851;28;20132;-79
2022/05/28 11:29:34;;;;;;;0.25;0.13;;;;;;;;;;5046479;28;20045;-79
2022/05/28 11:32:03;;;;;;;0.20;0.20;;;;;;;;;;5048407;28;20049;-80
2022/05/28 11:34:35;;;;;;;0.28;0.20;;;;;;;;;;5055322;28;20412;-80
2022/05/28 11:37:05;;;;;;;0.20;0.20;;;;;;;;;;5052129;28;20355;-79
2022/05/28 11:39:40;;;;;;;0.17;0.17;;;;;;;;;;5053431;28;20356;-78
2022/05/28 11:42:16;;;;;;;0.10;0.10;;;;;;;;;;5054134;28;20052;-79
2022/05/28 11:44:46;;;;;;;0.22;0.20;;;;;;;;;;5052740;28;20095;-78
2022/05/28 11:47:21;;;;;;;0.75;0.40;;;;;;;;;;5045585;28;20044;-80
2022/05/28 11:52:45;;;;;;;0.10;0.10;;;;;;;;;;5047935;28;20522;-79
2022/05/28 11:55:16;;;;;;;0.25;0.25;;;;;;;;;;5041069;28;20518;-77
2022/05/28 11:57:47;;;;;;;0.30;0.20;;;;;;;;;;5052939;28;20053;-78
2022/05/28 12:00:16;;;;;;;0.13;0.13;;;;;;;;;;5053975;28;20107;-77
2022/05/28 12:02:47;;;;;;;0.35;0.20;;;;;;;;;;5054896;28;20056;-80
2022/05/28 12:05:20;;;;;;;0.10;0.10;;;;;;;;;;5052906;28;20077;-79
2022/05/28 12:07:53;;;;;;;0.10;0.10;;;;;;;;;;5037959;28;20053;-79
2022/05/28 12:10:36;;;;;;;3.13;0.25;;;;;;;;;;5047438;28;20124;-80
2022/05/28 12:13:04;;;;;;;0.00;0.00;;;;;;;;;;5052733;28;20033;-79
2022/05/28 12:15:34;;;;;;;0.03;0.03;;;;;;;;;;5053356;28;20465;-80
2022/05/28 12:18:05;;;;;;;1.10;0.20;;;;;;;;;;5053690;28;20382;-80
2022/05/28 12:20:35;;;;;;;0.00;0.00;;;;;;;;;;5050077;28;20054;-80
2022/05/28 12:23:05;;;;;;;0.10;0.10;;;;;;;;;;5044312;28;20488;-76
2022/05/28 12:25:36;;;;;;;0.40;0.20;;;;;;;;;;5051927;28;20399;-80
2022/05/28 12:28:11;;;;;;;5.32;0.15;;;;;;;;;;5050899;28;20049;-79
2022/05/28 12:30:48;;;;;;;0.13;0.13;;;;;;;;;;5053085;28;20091;-78
2022/05/28 12:33:22;;;;;;;3.40;0.25;;;;;;;;;;5053884;28;20590;-79
2022/05/28 12:35:52;;;;;;;0.80;0.45;;;;;;;;;;5053797;28;20045;-78
2022/05/28 12:38:27;;;;;;;0.10;0.10;;;;;;;;;;5052797;28;20053;-78
2022/05/28 12:40:58;;;;;;;0.20;0.10;;;;;;;;;;5051941;28;20049;-76
2022/05/28 12:43:28;;;;;;;0.15;0.05;;;;;;;;;;5051569;28;20057;-79
2022/05/28 12:45:58;;;;;;;0.17;0.17;;;;;;;;;;5052388;28;20087;-79
2022/05/28 12:48:29;;;;;;;0.00;0.00;;;;;;;;;;5051470;28;20053;-79
2022/05/28 12:51:07;;;;;;;0.10;0.10;;;;;;;;;;5053046;28;20396;-79
2022/05/28 12:53:36;;;;;;;0.00;0.00;;;;;;;;;;5052612;28;20496;-79
2022/05/28 12:56:22;;;;;;;1.00;0.82;;;;;;;;;;5053619;28;20045;-79
2022/05/28 12:58:50;;;;;;;0.38;0.15;;;;;;;;;;5051878;28;20045;-79
2022/05/28 13:01:21;;;;;;;0.22;0.10;;;;;;;;;;5044379;28;20087;-76
2022/05/28 13:03:51;;;;;;;0.52;0.10;;;;;;;;;;5052949;28;20056;-79
2022/05/28 13:06:22;;;;;;;0.45;0.45;;;;;;;;;;5047809;28;20142;-79
2022/05/28 13:08:54;;;;;;;0.00;0.00;;;;;;;;;;5052100;28;20095;-78
2022/05/28 13:11:33;;;;;;;0.43;0.20;;;;;;;;;;5052137;28;20060;-77
2022/05/28 13:14:27;;;;;;;1.65;0.10;;;;;;;;;;5052819;28;20075;-79
2022/05/28 13:17:04;;;;;;;0.68;0.68;;;;;;;;;;5045821;28;20550;-78
2022/05/28 13:19:41;;;;;;;0.00;0.00;;;;;;;;;;5049065;28;20091;-78
2022/05/28 13:22:16;;;;;;;0.10;0.10;;;;;;;;;;5048373;28;20057;-82
2022/05/28 13:25:05;;;;;;;0.10;0.10;;;;;;;;;;5052735;28;20052;-79
2022/05/28 13:27:54;;;;;;;0.20;0.20;;;;;;;;;;5051675;28;20091;-78
2022/05/28 13:30:27;;;;;;;0.10;0.10;;;;;;;;;;5052303;28;20489;-80
2022/05/28 13:32:59;;;;;;;0.30;0.22;;;;;;;;;;5057422;28;20053;-80
2022/05/28 13:35:27;;;;;;;0.35;0.17;;;;;;;;;;5053081;28;20049;-79
2022/05/28 13:37:57;;;;;;;0.10;0.10;;;;;;;;;;5050494;28;20552;-78
2022/05/28 13:40:27;;;;;;;0.10;0.10;;;;;;;;;;5052085;28;20099;-79
2022/05/28 13:42:56;;;;;;;0.95;0.32;;;;;;;;;;5051464;28;20045;-80
2022/05/28 13:45:28;;;;;;;0.43;0.15;;;;;;;;;;5043003;28;20355;-80
2022/05/28 13:48:03;;;;;;;0.10;0.10;;;;;;;;;;5049690;28;20040;-79
2022/05/28 13:50:32;;;;;;;0.20;0.20;;;;;;;;;;5046251;28;20428;-79
2022/05/28 13:53:02;;;;;;;0.52;0.10;;;;;;;;;;5044857;28;20045;-79
2022/05/28 13:55:30;;;;;;;0.10;0.10;;;;;;;;;;5049540;28;20057;-79
2022/05/28 13:57:58;;;;;;;0.10;0.10;;;;;;;;;;5051159;28;20080;-79
2022/05/28 14:00:29;;;;;;;1.58;1.10;;;;;;;;;;5052859;28;20075;-80
2022/05/28 14:03:00;;;;;;;0.68;0.20;;;;;;;;;;5054674;28;20055;-79
2022/05/28 14:05:30;;;;;;;0.10;0.10;;;;;;;;;;5051370;28;20404;-79
2022/05/28 14:08:00;;;;;;;0.20;0.20;;;;;;;;;;5041179;28;20091;-80
2022/05/28 14:10:30;;;;;;;0.20;0.20;;;;;;;;;;5051702;28;20107;-79
2022/05/28 14:12:59;;;;;;;0.55;0.55;;;;;;;;;;5051026;28;20049;-80
2022/05/28 14:15:31;;;;;;;0.82;0.22;;;;;;;;;;5050844;28;20075;-81
2022/05/28 14:18:00;;;;;;;0.15;0.05;;;;;;;;;;5043586;28;20104;-79
2022/05/28 14:20:30;;;;;;;0.00;0.00;;;;;;;;;;5048524;28;20114;-79
2022/05/28 14:23:04;;;;;;;0.10;0.10;;;;;;;;;;5047275;28;20583;-77
2022/05/28 14:25:35;;;;;;;0.20;0.10;;;;;;;;;;5047233;28;20041;-76
2022/05/28 14:28:07;;;;;;;0.13;0.13;;;;;;;;;;5045631;28;20152;-76
2022/05/28 14:30:38;;;;;;;0.30;0.22;;;;;;;;;;5046692;28;20459;-75
2022/05/28 14:33:08;;;;;;;0.80;0.30;;;;;;;;;;5039825;28;20056;-77
2022/05/28 14:35:42;;;;;;;1.98;0.10;;;;;;;;;;5044188;28;20042;-77
2022/05/28 14:38:11;;;;;;;0.10;0.10;;;;;;;;;;5041986;28;20504;-77
2022/05/28 14:40:44;;;;;;;0.10;0.10;;;;;;;;;;5048350;28;20052;-77
2022/05/28 14:43:18;;;;;;;0.47;0.10;;;;;;;;;;5045761;28;20051;-77
2022/05/28 14:45:48;;;;;;;0.65;0.35;;;;;;;;;;5047203;28;20049;-77
2022/05/28 14:48:22;;;;;;;0.30;0.10;;;;;;;;;;5049695;28;20052;-74
2022/05/28 14:50:53;;;;;;;0.15;0.15;;;;;;;;;;5043732;28;20096;-73
2022/05/28 14:53:28;;;;;;;0.13;0.10;;;;;;;;;;5047689;28;20065;-73
2022/05/28 14:55:57;;;;;;;0.20;0.20;;;;;;;;;;5050442;28;20047;-73
2022/05/28 14:58:25;;;;;;;0.17;0.17;;;;;;;;;;5045721;28;20054;-74
2022/05/28 15:01:08;;;;;;;3.45;0.20;;;;;;;;;;5056681;28;20037;-74
2022/05/28 15:03:37;;;;;;;0.95;0.30;;;;;;;;;;5041764;28;20052;-74
2022/05/28 15:06:13;;;;;;;0.90;0.10;;;;;;;;;;5052833;28;20586;-73
2022/05/28 15:08:48;;;;;;;1.20;0.20;;;;;;;;;;5052248;28;20045;-74
2022/05/28 15:11:22;;;;;;;0.10;0.10;;;;;;;;;;5054614;28;20040;-75